Bloomington, IN (47401)

2:44 AM EDT on August 28, 2015 (GMT -0400)
APRSWXNET | | Change Station
CLOSE
Current Station
Personal Weather Station
Location: Bloomington, IN
Elevation: 771 ft
Nearby Weather Stations

Elev 771 ft 39.13 °N, 86.45 °W | Updated 44 minutes ago

Clear
Clear
65 °F
Feels Like 65 °F
N
0
Wind Variable Wind from NE
Gusts 0.0 mph

Today
High -- | Low -- °F
--% Chance of Precip.
Yesterday
High -- | Low -- °F
Precip. -- in
7:10 AM 8:22 PM
Waxing Gibbous, 97% visible
Pressure 30.13 in
Visibility 1.5 miles
Clouds Clear
Dew Point 55 °F
Humidity 70%
Rainfall in
Snow Depth Not available.
UV 0 out of 12
Pollen 10.00 out of 12
Air Quality Not available.
Flu Activity Not available.
SPECI KBMG 280633Z AUTO 00000KT 1 1/2SM BR CLR 13/13 A3013 RMK AO2 T01330128
Pressure 30.13 in
Visibility 1.5 miles
Clouds Clear
Dew Point 55 °F
Humidity 70%
Rainfall in
Snow Depth Not available.
UV 0 out of 12
Pollen 10.00 out of 12
Air Quality Not available.
Flu Activity Not available.
SPECI KBMG 280633Z AUTO 00000KT 1 1/2SM BR CLR 13/13 A3013 RMK AO2 T01330128

10-Day Weather Forecast

×

Almanac

Astronomy

Aug. 28, 2015 Rise Set
Actual Time
Civil Twilight
Nautical Twilight
Astronomical Twilight
Moon
Length of Visible Light
Length of Day
Tomorrow will be .
, % of the Moon is Illuminated

Today's Extremes

State Highs State Lows

Community

WunderPhotos

Upload Photos

1,850,341 photos uploaded!

WunderBlogs® & News

Nearby

Air Quality

  Air Quality AQ Index Pollutant
Not available.

Snow Depth

Station Depth Elevation

Earthquake Activity

City Distance Mag. Time & Date
Minimum magnitude displayed is 2.5.

Coastal Water Temperatures

Place Temperature

Stations

Nearby Weather Stations

Station Location Temp. Windchill Dew Point Humidity Wind Precip. Elev Updated Type